createdAt,value
2023-04-27T00:01:16.671Z,101274.69
2023-04-27T00:03:46.003Z,101294.66
2023-04-27T00:06:12.997Z,101267.03
2023-04-27T00:08:39.700Z,101243.78
2023-04-27T00:11:06.709Z,101286.84
2023-04-27T00:13:33.450Z,101251.38
2023-04-27T00:16:03.675Z,101293.69
2023-04-27T00:18:31.276Z,101265.31
2023-04-27T00:20:58.668Z,101265.34
2023-04-27T00:23:26.330Z,101218.03
2023-04-27T00:25:53.002Z,101245.63
2023-04-27T00:28:19.766Z,101243.94
2023-04-27T00:30:46.655Z,101219.94
2023-04-27T00:33:13.428Z,101231.97
2023-04-27T00:35:40.077Z,101224.22
2023-04-27T00:38:06.737Z,101267.16
2023-04-27T00:40:33.353Z,101266.19
2023-04-27T00:43:00.019Z,101244.66
2023-04-27T00:45:26.663Z,101243.78
2023-04-27T00:47:53.639Z,101225.75
2023-04-27T00:50:29.550Z,101239.47
2023-04-27T00:52:56.842Z,101261.75
2023-04-27T00:55:24.549Z,101240.31
2023-04-27T00:57:51.900Z,101215.47
2023-04-27T01:00:18.712Z,101242.91
2023-04-27T01:02:46.196Z,101244.72
2023-04-27T01:05:13.528Z,101252.59
2023-04-27T01:07:41.062Z,101247.47
2023-04-27T01:10:08.517Z,101230.41
2023-04-27T01:12:35.224Z,101266.63
2023-04-27T01:15:01.956Z,101238.25
2023-04-27T01:17:28.676Z,101243.50
2023-04-27T01:19:56.867Z,101238.38
2023-04-27T01:22:23.576Z,101254.75
2023-04-27T01:24:50.241Z,101247.81
2023-04-27T01:27:16.925Z,101198.66
2023-04-27T01:29:44.641Z,101213.28
2023-04-27T01:32:12.557Z,101244.31
2023-04-27T01:34:39.303Z,101229.69
2023-04-27T01:37:06.078Z,101240.91
2023-04-27T01:39:32.927Z,101190.97
2023-04-27T01:41:59.624Z,101218.47
2023-04-27T01:44:26.423Z,101225.44
2023-04-27T01:46:53.141Z,101218.47
2023-04-27T01:49:19.908Z,101215.16
2023-04-27T01:51:46.741Z,101209.06
2023-04-27T01:54:13.441Z,101228.91
2023-04-27T01:56:40.180Z,101222.03
2023-04-27T01:59:06.932Z,101212.59
2023-04-27T02:01:33.665Z,101198.78
2023-04-27T02:04:00.571Z,101219.47
2023-04-27T02:06:27.863Z,101185.00
2023-04-27T02:08:54.511Z,101147.22
2023-04-27T02:11:21.736Z,101171.25
2023-04-27T02:13:48.958Z,101212.72
2023-04-27T02:16:15.784Z,101210.97
2023-04-27T02:18:42.917Z,101185.94
2023-04-27T02:21:10.912Z,101143.88
2023-04-27T02:23:37.892Z,101214.53
2023-04-27T02:26:04.696Z,101162.06
2023-04-27T02:28:32.352Z,101217.13
2023-04-27T02:30:59.444Z,101170.72
2023-04-27T02:33:26.109Z,101193.13
2023-04-27T02:35:52.786Z,101197.41
2023-04-27T02:38:19.441Z,101176.72
2023-04-27T02:40:46.129Z,101175.03
2023-04-27T02:43:12.776Z,101157.72
2023-04-27T02:45:39.441Z,101167.16
2023-04-27T02:48:06.510Z,101172.31
2023-04-27T02:50:33.157Z,101169.66
2023-04-27T02:52:59.911Z,101152.47
2023-04-27T02:55:27.715Z,101146.44
2023-04-27T02:57:54.382Z,101149.88
2023-04-27T03:00:21.116Z,101171.47
2023-04-27T03:02:47.901Z,101137.16
2023-04-27T03:05:14.727Z,101181.06
2023-04-27T03:07:41.410Z,101154.47
2023-04-27T03:10:08.459Z,101200.13
2023-04-27T03:12:35.286Z,101189.72
2023-04-27T03:15:02.073Z,101177.63
2023-04-27T03:17:29.047Z,101175.88
2023-04-27T03:19:55.798Z,101147.56
2023-04-27T03:22:22.467Z,101131.28
2023-04-27T03:24:49.227Z,101193.19
2023-04-27T03:27:15.889Z,101203.50
2023-04-27T03:29:42.535Z,101169.03
2023-04-27T03:32:09.254Z,101183.59
2023-04-27T03:34:36.948Z,101161.97
2023-04-27T03:37:03.655Z,101180.97
2023-04-27T03:39:30.385Z,101124.97
2023-04-27T03:41:57.681Z,101165.47
2023-04-27T03:44:24.499Z,101175.78
2023-04-27T03:46:51.458Z,101118.13
2023-04-27T03:49:18.087Z,101193.78
2023-04-27T03:51:44.745Z,101155.00
2023-04-27T03:54:11.656Z,101110.16
2023-04-27T03:56:38.320Z,101122.22
2023-04-27T03:59:05.339Z,101153.16
2023-04-27T04:01:32.236Z,101139.34
2023-04-27T04:03:59.116Z,101111.88
2023-04-27T04:06:26.232Z,101135.81
2023-04-27T04:08:52.904Z,101135.78
2023-04-27T04:11:19.557Z,101116.94
2023-04-27T04:13:47.466Z,101122.88
2023-04-27T04:16:14.204Z,101108.25
2023-04-27T04:18:41.009Z,101112.44
2023-04-27T04:21:10.144Z,101129.69
2023-04-27T04:23:37.730Z,101169.22
2023-04-27T04:26:05.679Z,101172.50
2023-04-27T04:28:32.471Z,101123.53
2023-04-27T04:31:01.228Z,101144.22
2023-04-27T04:33:28.369Z,101143.28
2023-04-27T04:35:55.054Z,101178.50
2023-04-27T04:38:21.774Z,101129.38
2023-04-27T04:40:48.638Z,101175.75
2023-04-27T04:43:15.443Z,101121.56
2023-04-27T04:45:42.846Z,101122.38
2023-04-27T04:48:10.420Z,101174.81
2023-04-27T04:50:37.173Z,101179.13
2023-04-27T04:53:03.869Z,101127.44
2023-04-27T04:55:30.710Z,101093.81
2023-04-27T04:57:57.380Z,101132.53
2023-04-27T05:00:24.357Z,101151.25
2023-04-27T05:02:51.299Z,101141.91
2023-04-27T05:05:18.136Z,101117.03
2023-04-27T05:07:45.041Z,101107.53
2023-04-27T05:10:11.916Z,101134.31
2023-04-27T05:12:38.822Z,101119.53
2023-04-27T05:15:06.072Z,101131.53
2023-04-27T05:17:32.814Z,101111.03
2023-04-27T05:19:59.592Z,101113.38
2023-04-27T05:22:26.384Z,101109.97
2023-04-27T05:24:53.062Z,101124.69
2023-04-27T05:27:19.696Z,101152.22
2023-04-27T05:29:46.399Z,101136.69
2023-04-27T05:32:13.106Z,101121.13
2023-04-27T05:34:39.852Z,101065.34
2023-04-27T05:37:06.703Z,101116.84
2023-04-27T05:39:33.484Z,101097.13
2023-04-27T05:42:00.142Z,101129.09
2023-04-27T05:44:29.511Z,101110.84
2023-04-27T05:46:56.484Z,101126.44
2023-04-27T05:49:23.591Z,101137.50
2023-04-27T05:51:50.369Z,101133.97
2023-04-27T05:54:17.002Z,101125.38
2023-04-27T05:56:43.682Z,101097.84
2023-04-27T05:59:10.410Z,101097.72
2023-04-27T06:01:37.120Z,101093.66
2023-04-27T06:04:04.299Z,101076.25
2023-04-27T06:06:33.115Z,101100.19
2023-04-27T06:09:00.031Z,101097.31
2023-04-27T06:11:26.957Z,101084.31
2023-04-27T06:13:53.800Z,101078.25
2023-04-27T06:16:21.356Z,101058.28
2023-04-27T06:18:50.044Z,101098.94
2023-04-27T06:21:17.904Z,101126.41
2023-04-27T06:23:44.784Z,101113.84
2023-04-27T06:26:11.693Z,101057.06
2023-04-27T06:28:38.524Z,101090.69
2023-04-27T06:31:06.383Z,101130.94
2023-04-27T06:33:33.641Z,101088.72
2023-04-27T06:36:01.459Z,101126.44
2023-04-27T06:38:28.529Z,101076.06
2023-04-27T06:40:55.218Z,101093.16
2023-04-27T06:43:22.398Z,101065.84
2023-04-27T06:45:49.108Z,101073.66
2023-04-27T06:48:15.996Z,101080.94
2023-04-27T06:50:43.412Z,101124.38
2023-04-27T06:53:10.657Z,101101.50
2023-04-27T06:55:37.307Z,101083.22
2023-04-27T06:58:04.556Z,101127.38
2023-04-27T07:00:32.029Z,101115.19
2023-04-27T07:02:59.003Z,101098.94
2023-04-27T07:05:26.478Z,101073.88
2023-04-27T07:07:53.321Z,101109.97
2023-04-27T07:10:20.287Z,101093.59
2023-04-27T07:12:49.129Z,101078.00
2023-04-27T07:15:15.948Z,101122.75
2023-04-27T07:17:42.711Z,101084.69
2023-04-27T07:20:09.612Z,101082.78
2023-04-27T07:22:36.516Z,101114.38
2023-04-27T07:25:04.055Z,101115.38
2023-04-27T07:27:32.036Z,101095.47
2023-04-27T07:29:59.232Z,101124.31
2023-04-27T07:32:26.347Z,101096.31
2023-04-27T07:34:55.635Z,101109.13
2023-04-27T07:37:22.970Z,101116.41
2023-04-27T07:39:52.140Z,101093.94
2023-04-27T07:42:20.047Z,101085.94
2023-04-27T07:44:47.477Z,101090.53
2023-04-27T07:47:14.524Z,101112.66
2023-04-27T07:49:41.271Z,101097.63
2023-04-27T07:52:08.418Z,101087.28
2023-04-27T07:54:35.367Z,101117.31
2023-04-27T07:57:02.425Z,101110.00
2023-04-27T07:59:30.316Z,101074.38
2023-04-27T08:02:07.018Z,101100.38
2023-04-27T08:04:44.302Z,101039.91
2023-04-27T08:07:11.754Z,101046.44
2023-04-27T08:09:38.674Z,101056.53
2023-04-27T08:12:06.208Z,101080.53
2023-04-27T08:14:35.449Z,101069.25
2023-04-27T08:17:02.642Z,101081.16
2023-04-27T08:19:29.454Z,101049.69
2023-04-27T08:21:56.227Z,101067.34
2023-04-27T08:24:22.890Z,101053.28
2023-04-27T08:26:49.623Z,101112.78
2023-04-27T08:29:26.959Z,101064.91
2023-04-27T08:31:56.914Z,101051.81
2023-04-27T08:34:24.114Z,101061.94
2023-04-27T08:36:51.091Z,101056.16
2023-04-27T08:39:18.494Z,101083.56
2023-04-27T08:41:45.562Z,101028.31
2023-04-27T08:44:12.344Z,101096.72
2023-04-27T08:46:39.911Z,101070.47
2023-04-27T08:49:10.104Z,101066.84
2023-04-27T08:51:36.910Z,101031.00
2023-04-27T08:54:03.793Z,101020.91
2023-04-27T08:56:31.160Z,101083.22
2023-04-27T08:58:59.136Z,101088.69
2023-04-27T09:01:29.118Z,101081.44
2023-04-27T09:03:58.201Z,101002.59
2023-04-27T09:06:32.792Z,101084.25
2023-04-27T09:09:00.117Z,101069.16
2023-04-27T09:11:31.891Z,101080.88
2023-04-27T09:14:00.326Z,101043.16
2023-04-27T09:16:29.342Z,101063.28
2023-04-27T09:18:57.469Z,101032.41
2023-04-27T09:21:29.676Z,101023.66
2023-04-27T09:23:56.821Z,100986.69
2023-04-27T09:26:26.978Z,100986.56
2023-04-27T09:28:58.616Z,101045.38
2023-04-27T09:31:37.097Z,101016.41
2023-04-27T09:34:04.307Z,100986.97
2023-04-27T09:36:33.202Z,101019.63
2023-04-27T09:39:04.808Z,101013.22
2023-04-27T09:41:32.873Z,101032.78
2023-04-27T09:44:01.690Z,101014.50
2023-04-27T09:46:29.622Z,101016.78
2023-04-27T09:48:56.796Z,101039.31
2023-04-27T09:51:23.480Z,100950.00
2023-04-27T09:53:54.167Z,100983.06
2023-04-27T09:56:32.886Z,101055.69
2023-04-27T09:59:08.749Z,101054.78
2023-04-27T10:01:41.971Z,100945.16
2023-04-27T10:04:45.732Z,101052.56
2023-04-27T10:07:14.492Z,100983.00
2023-04-27T10:09:43.648Z,100926.31
2023-04-27T10:12:36.458Z,101032.34
2023-04-27T10:15:13.324Z,100979.03
2023-04-27T10:17:49.162Z,100973.63
2023-04-27T10:20:16.627Z,101019.84
2023-04-27T10:22:48.220Z,100992.94
2023-04-27T10:25:21.742Z,101043.78
2023-04-27T10:27:57.874Z,101023.56
2023-04-27T10:30:27.587Z,101044.03
2023-04-27T10:32:56.841Z,101015.66
2023-04-27T10:35:45.968Z,100998.34
2023-04-27T10:38:17.706Z,100975.00
2023-04-27T10:40:46.679Z,100999.25
2023-04-27T10:43:16.264Z,100952.00
2023-04-27T10:45:43.908Z,100969.41
2023-04-27T10:48:16.954Z,100972.56
2023-04-27T10:50:47.006Z,100969.34
2023-04-27T10:53:17.557Z,100964.09
2023-04-27T10:55:44.242Z,100942.69
2023-04-27T10:58:11.035Z,100974.22
2023-04-27T11:00:44.661Z,101015.44
2023-04-27T11:03:24.169Z,100973.97
2023-04-27T11:06:03.065Z,100980.88
2023-04-27T11:08:30.879Z,100961.38
2023-04-27T11:10:57.795Z,100895.16
2023-04-27T11:13:26.511Z,100987.59
2023-04-27T11:15:58.155Z,100939.09
2023-04-27T11:18:29.309Z,100989.91
2023-04-27T11:21:07.736Z,100928.34
2023-04-27T11:23:38.615Z,101009.34
2023-04-27T11:26:17.020Z,100972.34
2023-04-27T11:28:59.893Z,100960.88
2023-04-27T11:31:27.596Z,100921.25
2023-04-27T11:33:55.974Z,100922.91
2023-04-27T11:36:24.523Z,100930.97
2023-04-27T11:38:51.190Z,100952.50
2023-04-27T11:41:17.994Z,100952.50
2023-04-27T11:43:51.384Z,100925.94
2023-04-27T11:46:22.395Z,100972.94
2023-04-27T11:48:49.431Z,100886.66
2023-04-27T11:51:16.212Z,100938.72
2023-04-27T11:53:48.244Z,100876.94
2023-04-27T11:56:14.889Z,100936.34
2023-04-27T11:58:42.580Z,100965.22
2023-04-27T12:01:12.039Z,100864.13
2023-04-27T12:03:39.151Z,100948.03
2023-04-27T12:06:27.780Z,100947.56
2023-04-27T12:08:53.414Z,100924.91
2023-04-27T12:11:20.916Z,100955.66
2023-04-27T12:13:48.292Z,100891.72
2023-04-27T12:16:15.018Z,100892.19
2023-04-27T12:18:41.817Z,100947.16
2023-04-27T12:21:08.755Z,100939.31
2023-04-27T12:23:35.687Z,100875.69
2023-04-27T12:26:03.108Z,100854.59
2023-04-27T12:28:29.957Z,100902.22
2023-04-27T12:30:56.919Z,100882.78
2023-04-27T12:33:23.729Z,100930.13
2023-04-27T12:35:50.620Z,100890.53
2023-04-27T12:38:17.302Z,100878.97
2023-04-27T12:40:44.017Z,100892.13
2023-04-27T12:43:11.097Z,100930.09
2023-04-27T12:45:37.756Z,100867.19
2023-04-27T12:48:04.724Z,100870.28
2023-04-27T12:50:34.398Z,100890.25
2023-04-27T12:53:01.355Z,100870.72
2023-04-27T12:57:58.380Z,100897.38
2023-04-27T13:00:25.601Z,100857.72
2023-04-27T13:02:53.103Z,100859.63
2023-04-27T13:05:21.087Z,100889.72
2023-04-27T13:07:48.020Z,100849.31
2023-04-27T13:10:14.872Z,100850.06
2023-04-27T13:12:41.675Z,100829.38
2023-04-27T13:15:09.299Z,100843.38
2023-04-27T13:17:36.186Z,100874.63
2023-04-27T13:20:03.299Z,100893.44
2023-04-27T13:22:30.041Z,100858.97
2023-04-27T13:24:56.811Z,100856.94
2023-04-27T13:27:25.341Z,100808.91
2023-04-27T13:29:52.226Z,100900.09
2023-04-27T13:32:18.941Z,100847.53
2023-04-27T13:34:45.816Z,100832.00
2023-04-27T13:37:12.555Z,100922.34
2023-04-27T13:39:39.259Z,100847.66
2023-04-27T13:42:06.630Z,100873.41
2023-04-27T13:44:33.751Z,100838.78
2023-04-27T13:47:00.581Z,100784.63
2023-04-27T13:49:27.313Z,100857.41
2023-04-27T13:51:53.994Z,100815.09
2023-04-27T13:54:21.656Z,100833.53
2023-04-27T13:56:48.538Z,100794.06
2023-04-27T13:59:16.751Z,100873.03
2023-04-27T14:01:43.705Z,100830.59
2023-04-27T14:04:10.852Z,100820.81
2023-04-27T14:06:37.787Z,100863.81
2023-04-27T14:09:04.662Z,100796.88
2023-04-27T14:11:35.348Z,100813.56
2023-04-27T14:14:06.822Z,100806.19
2023-04-27T14:16:33.588Z,100807.97
2023-04-27T14:19:00.338Z,100826.00
2023-04-27T14:21:28.178Z,100823.69
2023-04-27T14:23:54.916Z,100791.38
2023-04-27T14:26:22.062Z,100807.28
2023-04-27T14:28:48.800Z,100754.72
2023-04-27T14:31:16.116Z,100763.03
2023-04-27T14:33:42.811Z,100821.56
2023-04-27T14:36:09.800Z,100825.50
2023-04-27T14:38:36.482Z,100801.72
2023-04-27T14:41:03.218Z,100795.84
2023-04-27T14:43:29.921Z,100780.22
2023-04-27T14:46:08.149Z,100787.31
2023-04-27T14:48:43.666Z,100771.91
2023-04-27T14:51:11.177Z,100750.91
2023-04-27T14:53:37.981Z,100784.44
2023-04-27T14:56:05.268Z,100790.34
2023-04-27T14:58:34.981Z,100753.94
2023-04-27T15:01:02.061Z,100821.06
2023-04-27T15:03:28.949Z,100731.03
2023-04-27T15:05:56.005Z,100734.00
2023-04-27T15:08:22.814Z,100744.50
2023-04-27T15:10:49.733Z,100751.50
2023-04-27T15:13:16.926Z,100744.63
2023-04-27T15:15:46.783Z,100764.25
2023-04-27T15:18:13.562Z,100755.66
2023-04-27T15:20:40.345Z,100686.28
2023-04-27T15:23:07.014Z,100783.00
2023-04-27T15:25:33.828Z,100711.75
2023-04-27T15:28:03.226Z,100697.13
2023-04-27T15:30:30.101Z,100684.78
2023-04-27T15:32:57.009Z,100712.66
2023-04-27T15:35:23.969Z,100700.69
2023-04-27T15:37:52.249Z,100716.13
2023-04-27T15:40:19.158Z,100693.25
2023-04-27T15:42:46.093Z,100678.88
2023-04-27T15:45:12.862Z,100658.31
2023-04-27T15:47:39.672Z,100706.44
2023-04-27T15:50:06.826Z,100701.13
2023-04-27T15:52:33.997Z,100643.94
2023-04-27T15:55:06.787Z,100659.97
2023-04-27T15:57:33.581Z,100718.59
2023-04-27T16:00:00.588Z,100682.53
2023-04-27T16:02:27.582Z,100652.38
2023-04-27T16:04:56.395Z,100650.91
2023-04-27T16:07:23.167Z,100684.09
2023-04-27T16:09:50.032Z,100683.06
2023-04-27T16:12:17.032Z,100682.41
2023-04-27T16:14:43.749Z,100676.47
2023-04-27T16:17:10.876Z,100667.56
2023-04-27T16:19:37.534Z,100636.72
2023-04-27T16:22:04.380Z,100686.47
2023-04-27T16:24:31.505Z,100690.53
2023-04-27T16:26:58.373Z,100676.88
2023-04-27T16:31:53.265Z,100683.75
2023-04-27T16:34:20.075Z,100676.75
2023-04-27T16:36:48.566Z,100669.47
2023-04-27T16:39:16.192Z,100617.00
2023-04-27T16:41:43.346Z,100641.31
2023-04-27T16:44:11.655Z,100669.22
2023-04-27T16:46:38.396Z,100634.00
2023-04-27T16:49:05.232Z,100637.22
2023-04-27T16:51:32.270Z,100640.09
2023-04-27T16:53:59.520Z,100631.97
2023-04-27T16:56:31.592Z,100656.88
2023-04-27T16:58:59.010Z,100691.88
2023-04-27T17:01:29.011Z,100619.31
2023-04-27T17:04:01.186Z,100691.56
2023-04-27T17:06:28.659Z,100624.72
2023-04-27T17:08:56.431Z,100630.72
2023-04-27T17:11:23.248Z,100602.63
2023-04-27T17:13:50.573Z,100688.25
2023-04-27T17:16:18.153Z,100602.84
2023-04-27T17:18:46.574Z,100658.00
2023-04-27T17:21:13.440Z,100652.81
2023-04-27T17:23:41.572Z,100621.50
2023-04-27T17:26:08.623Z,100680.06
2023-04-27T17:28:35.324Z,100647.97
2023-04-27T17:31:02.181Z,100632.56
2023-04-27T17:33:28.862Z,100618.19
2023-04-27T17:35:55.718Z,100632.28
2023-04-27T17:38:22.385Z,100597.13
2023-04-27T17:40:49.094Z,100561.09
2023-04-27T17:43:15.803Z,100642.88
2023-04-27T17:45:42.893Z,100600.63
2023-04-27T17:48:09.672Z,100657.94
2023-04-27T17:50:38.273Z,100589.63
2023-04-27T17:53:04.970Z,100582.41
2023-04-27T17:55:31.748Z,100550.25
2023-04-27T17:57:58.445Z,100621.38
2023-04-27T18:00:25.200Z,100616.16
2023-04-27T18:02:52.043Z,100634.13
2023-04-27T18:05:18.918Z,100538.50
2023-04-27T18:07:46.806Z,100661.41
2023-04-27T18:10:13.845Z,100571.03
2023-04-27T18:12:40.509Z,100589.75
2023-04-27T18:15:09.663Z,100599.28
2023-04-27T18:17:36.891Z,100549.47
2023-04-27T18:20:09.551Z,100604.75
2023-04-27T18:22:39.485Z,100604.31
2023-04-27T18:25:06.840Z,100563.09
2023-04-27T18:27:33.527Z,100610.00
2023-04-27T18:30:00.220Z,100575.34
2023-04-27T18:32:26.893Z,100606.44
2023-04-27T18:34:54.046Z,100613.22
2023-04-27T18:37:20.944Z,100621.56
2023-04-27T18:39:47.672Z,100614.75
2023-04-27T18:42:14.459Z,100598.47
2023-04-27T18:44:41.789Z,100562.69
2023-04-27T18:47:08.470Z,100572.19
2023-04-27T18:49:35.157Z,100524.16
2023-04-27T18:52:01.936Z,100558.06
2023-04-27T18:54:28.727Z,100577.59
2023-04-27T18:56:55.966Z,100563.34
2023-04-27T18:59:22.686Z,100572.50
2023-04-27T19:01:49.407Z,100508.97
2023-04-27T19:04:16.698Z,100580.25
2023-04-27T19:06:43.618Z,100556.31
2023-04-27T19:09:10.317Z,100530.03
2023-04-27T19:11:37.012Z,100580.53
2023-04-27T19:14:03.725Z,100617.63
2023-04-27T19:16:30.526Z,100563.88
2023-04-27T19:18:57.312Z,100526.34
2023-04-27T19:21:24.149Z,100590.91
2023-04-27T19:23:51.263Z,100526.09
2023-04-27T19:26:17.966Z,100564.28
2023-04-27T19:28:44.755Z,100585.25
2023-04-27T19:31:11.583Z,100554.66
2023-04-27T19:33:38.414Z,100582.09
2023-04-27T19:36:05.329Z,100484.25
2023-04-27T19:38:32.185Z,100539.78
2023-04-27T19:40:58.886Z,100538.00
2023-04-27T19:43:25.605Z,100564.53
2023-04-27T19:45:52.320Z,100526.69
2023-04-27T19:48:18.965Z,100515.97
2023-04-27T19:50:45.830Z,100538.25
2023-04-27T19:53:12.501Z,100540.88
2023-04-27T19:55:40.494Z,100545.13
2023-04-27T19:58:07.307Z,100527.28
2023-04-27T20:00:34.307Z,100560.38
2023-04-27T20:03:01.317Z,100551.09
2023-04-27T20:05:28.493Z,100578.91
2023-04-27T20:07:55.521Z,100517.88
2023-04-27T20:10:22.355Z,100542.16
2023-04-27T20:12:56.592Z,100569.09
2023-04-27T20:15:24.451Z,100496.25
2023-04-27T20:17:51.906Z,100552.44
2023-04-27T20:20:19.370Z,100525.69
2023-04-27T20:22:46.126Z,100569.06
2023-04-27T20:25:14.741Z,100548.44
2023-04-27T20:27:41.935Z,100509.38
2023-04-27T20:30:09.369Z,100517.03
2023-04-27T20:32:36.484Z,100515.34
2023-04-27T20:35:04.923Z,100493.00
2023-04-27T20:37:32.784Z,100541.84
2023-04-27T20:39:59.555Z,100551.38
2023-04-27T20:42:26.349Z,100551.19
2023-04-27T20:44:54.899Z,100548.53
2023-04-27T20:47:22.021Z,100506.84
2023-04-27T20:49:48.980Z,100524.31
2023-04-27T20:52:15.812Z,100535.03
2023-04-27T20:54:42.535Z,100506.09
2023-04-27T20:57:13.544Z,100494.66
2023-04-27T20:59:41.150Z,100508.56
2023-04-27T21:02:08.411Z,100484.69
2023-04-27T21:04:35.275Z,100487.22
2023-04-27T21:07:02.073Z,100519.41
2023-04-27T21:09:28.789Z,100498.16
2023-04-27T21:11:55.530Z,100488.97
2023-04-27T21:14:22.170Z,100501.47
2023-04-27T21:16:49.024Z,100527.94
2023-04-27T21:19:16.736Z,100522.97
2023-04-27T21:21:43.378Z,100479.47
2023-04-27T21:24:10.428Z,100478.72
2023-04-27T21:26:37.330Z,100483.56
2023-04-27T21:29:05.987Z,100434.03
2023-04-27T21:31:33.783Z,100468.78
2023-04-27T21:34:00.889Z,100509.63
2023-04-27T21:36:27.821Z,100489.03
2023-04-27T21:38:54.672Z,100484.66
2023-04-27T21:41:21.576Z,100478.00
2023-04-27T21:43:48.292Z,100462.69
2023-04-27T21:46:14.995Z,100459.72
2023-04-27T21:48:41.661Z,100464.31
2023-04-27T21:51:08.412Z,100510.47
2023-04-27T21:53:35.093Z,100489.31
2023-04-27T21:56:01.781Z,100448.59
2023-04-27T21:58:28.670Z,100452.00
2023-04-27T22:00:55.371Z,100494.75
2023-04-27T22:03:22.758Z,100485.09
2023-04-27T22:05:50.347Z,100480.19
2023-04-27T22:08:17.517Z,100443.38
2023-04-27T22:10:44.884Z,100486.16
2023-04-27T22:13:18.819Z,100496.47
2023-04-27T22:15:47.115Z,100495.44
2023-04-27T22:18:15.044Z,100468.41
2023-04-27T22:20:42.461Z,100437.28
2023-04-27T22:23:09.678Z,100466.88
2023-04-27T22:25:36.464Z,100438.97
2023-04-27T22:28:03.137Z,100425.06
2023-04-27T22:30:30.473Z,100472.50
2023-04-27T22:32:57.707Z,100417.50
2023-04-27T22:35:26.952Z,100438.59
2023-04-27T22:37:58.063Z,100464.94
2023-04-27T22:40:24.954Z,100451.69
2023-04-27T22:42:52.071Z,100364.75
2023-04-27T22:45:18.793Z,100411.22
2023-04-27T22:47:46.130Z,100433.84
2023-04-27T22:50:13.396Z,100472.81
2023-04-27T22:52:42.417Z,100442.31
2023-04-27T22:55:10.309Z,100466.78
2023-04-27T22:57:38.212Z,100435.25
2023-04-27T23:00:05.709Z,100449.84
2023-04-27T23:02:32.591Z,100388.53
2023-04-27T23:04:59.376Z,100443.31
2023-04-27T23:07:26.064Z,100455.66
2023-04-27T23:09:53.078Z,100405.13
2023-04-27T23:12:20.820Z,100404.97
2023-04-27T23:14:47.559Z,100419.63
2023-04-27T23:17:17.167Z,100390.41
2023-04-27T23:19:43.847Z,100387.47
2023-04-27T23:22:10.586Z,100417.72
2023-04-27T23:24:37.236Z,100395.88
2023-04-27T23:27:04.090Z,100435.81
2023-04-27T23:29:31.387Z,100411.19
2023-04-27T23:32:04.711Z,100397.59
2023-04-27T23:34:34.247Z,100454.72
2023-04-27T23:37:01.058Z,100412.31
2023-04-27T23:39:28.264Z,100447.34
2023-04-27T23:41:54.964Z,100422.91
2023-04-27T23:44:21.607Z,100399.09
2023-04-27T23:46:48.291Z,100403.94
2023-04-27T23:49:15.590Z,100369.03
2023-04-27T23:51:42.244Z,100404.13
2023-04-27T23:54:08.950Z,100438.97
2023-04-27T23:56:35.649Z,100390.06
2023-04-27T23:59:02.357Z,100414.84
